createdAt,value
2023-03-01T00:00:19.583Z,46.066667
2023-03-01T00:05:21.690Z,45.933333
2023-03-01T00:10:23.485Z,45.571429
2023-03-01T00:15:25.568Z,45.533333
2023-03-01T00:20:27.581Z,45.533333
2023-03-01T00:25:29.379Z,45.866667
2023-03-01T00:30:31.504Z,45.800000
2023-03-01T00:35:33.515Z,46.133333
2023-03-01T00:40:35.529Z,46.733333
2023-03-01T00:45:17.224Z,46.666667
2023-03-01T00:50:19.077Z,47.266667
2023-03-01T00:55:21.447Z,47.333333
2023-03-01T01:00:23.473Z,48.285714
2023-03-01T01:05:25.584Z,48.133333
2023-03-01T01:10:27.720Z,48.866667
2023-03-01T01:15:29.601Z,52.400000
2023-03-01T01:20:31.771Z,50.333333
2023-03-01T01:25:33.850Z,49.000000
2023-03-01T01:30:35.781Z,48.866667
2023-03-01T01:35:17.517Z,47.000000
2023-03-01T01:40:19.498Z,44.733333
2023-03-01T01:45:21.877Z,43.266667
2023-03-01T01:50:23.753Z,42.714286
2023-03-01T01:55:25.736Z,45.333333
2023-03-01T02:00:27.707Z,48.533333
2023-03-01T02:05:29.524Z,49.933333
2023-03-01T02:10:31.567Z,50.600000
2023-03-01T02:15:33.577Z,50.600000
2023-03-01T02:20:35.676Z,46.600000
2023-03-01T02:25:17.365Z,48.666667
2023-03-01T02:30:19.533Z,47.200000
2023-03-01T02:35:21.722Z,47.600000
2023-03-01T02:40:23.856Z,48.142857
2023-03-01T02:45:25.985Z,48.733333
2023-03-01T02:50:27.625Z,49.400000
2023-03-01T02:55:29.472Z,50.133333
2023-03-01T03:00:31.418Z,51.133333
2023-03-01T03:05:33.484Z,51.000000
2023-03-01T03:10:35.316Z,50.933333
2023-03-01T03:15:17.129Z,50.800000
2023-03-01T03:20:19.077Z,49.933333
2023-03-01T03:25:21.347Z,49.533333
2023-03-01T03:30:23.151Z,48.357143
2023-03-01T03:35:26.217Z,47.400000
2023-03-01T03:40:27.118Z,47.533333
2023-03-01T03:45:29.114Z,46.066667
2023-03-01T03:50:30.975Z,45.266667
2023-03-01T03:55:32.966Z,43.800000
2023-03-01T04:00:34.947Z,44.200000
2023-03-01T04:05:16.880Z,44.733333
2023-03-01T04:10:18.868Z,44.266667
2023-03-01T04:15:21.081Z,43.866667
2023-03-01T04:20:22.937Z,44.357143
2023-03-01T04:25:24.856Z,44.066667
2023-03-01T04:30:27.232Z,44.000000
2023-03-01T04:35:29.160Z,44.333333
2023-03-01T04:40:31.177Z,44.866667
2023-03-01T04:45:33.587Z,45.333333
2023-03-01T04:50:35.846Z,45.466667
2023-03-01T04:55:17.888Z,44.933333
2023-03-01T05:00:20.202Z,44.666667
2023-03-01T05:05:21.749Z,45.533333
2023-03-01T05:10:23.714Z,45.071429
2023-03-01T05:15:25.640Z,45.266667
2023-03-01T05:20:27.814Z,45.400000
2023-03-01T05:25:29.695Z,45.866667
2023-03-01T05:30:31.794Z,44.466667
2023-03-01T05:35:33.933Z,43.866667
2023-03-01T05:40:35.557Z,45.133333
2023-03-01T05:45:17.425Z,45.800000
2023-03-01T05:50:19.857Z,46.533333
2023-03-01T05:55:21.729Z,47.400000
2023-03-01T06:00:23.803Z,47.571429
2023-03-01T06:05:25.920Z,47.733333
2023-03-01T06:10:28.028Z,48.200000
2023-03-01T06:15:29.960Z,47.133333
2023-03-01T06:20:32.195Z,47.066667
2023-03-01T06:25:34.513Z,47.466667
2023-03-01T06:30:16.426Z,47.866667
2023-03-01T06:35:19.044Z,46.466667
2023-03-01T06:40:21.081Z,44.533333
2023-03-01T06:45:23.445Z,44.714286
2023-03-01T06:50:25.605Z,44.733333
2023-03-01T06:55:27.435Z,44.800000
2023-03-01T07:00:29.676Z,44.866667
2023-03-01T07:05:32.076Z,44.400000
2023-03-01T07:10:33.708Z,45.133333
2023-03-01T07:15:35.884Z,45.666667
2023-03-01T07:20:17.945Z,45.466667
2023-03-01T07:25:20.028Z,45.666667
2023-03-01T07:30:21.798Z,45.933333
2023-03-01T07:35:24.582Z,45.500000
2023-03-01T07:40:26.333Z,45.666667
2023-03-01T07:45:28.838Z,45.266667
2023-03-01T07:50:31.295Z,45.400000
2023-03-01T07:55:33.323Z,46.200000
2023-03-01T08:00:35.354Z,47.400000
2023-03-01T08:05:17.368Z,47.466667
2023-03-01T08:10:19.741Z,47.133333
2023-03-01T08:15:21.733Z,46.333333
2023-03-01T08:20:24.001Z,45.785714
2023-03-01T08:25:26.132Z,45.600000
2023-03-01T08:30:28.646Z,45.000000
2023-03-01T08:35:30.766Z,44.933333
2023-03-01T08:40:32.603Z,45.133333
2023-03-01T08:45:34.887Z,44.800000
2023-03-01T08:50:16.599Z,45.933333
2023-03-01T08:55:18.922Z,45.733333
2023-03-01T09:00:20.950Z,45.800000
2023-03-01T09:05:23.223Z,46.714286
2023-03-01T09:10:25.264Z,46.800000
2023-03-01T09:15:27.223Z,47.266667
2023-03-01T09:20:29.405Z,48.333333
2023-03-01T09:25:31.361Z,48.133333
2023-03-01T09:30:33.709Z,47.866667
2023-03-01T09:35:36.372Z,47.533333
2023-03-01T09:40:18.000Z,48.000000
2023-03-01T09:45:20.230Z,49.200000
2023-03-01T09:50:22.417Z,51.214286
2023-03-01T09:55:24.628Z,52.533333
2023-03-01T10:00:26.955Z,53.533333
2023-03-01T10:05:29.420Z,54.466667
2023-03-01T10:10:31.739Z,54.333333
2023-03-01T10:15:33.692Z,54.600000
2023-03-01T10:20:36.211Z,55.466667
2023-03-01T10:25:17.398Z,60.866667
2023-03-01T10:30:19.550Z,63.066667
2023-03-01T10:35:21.464Z,63.600000
2023-03-01T10:40:23.876Z,63.142857
2023-03-01T10:45:26.764Z,62.000000
2023-03-01T10:50:27.709Z,62.666667
2023-03-01T10:55:30.149Z,60.066667
2023-03-01T11:00:32.460Z,62.066667
2023-03-01T11:05:35.032Z,65.600000
2023-03-01T11:10:16.740Z,66.600000
2023-03-01T11:15:19.089Z,66.933333
2023-03-01T11:20:20.849Z,66.000000
2023-03-01T11:25:23.011Z,66.000000
2023-03-01T11:30:25.275Z,66.466667
2023-03-01T11:35:27.568Z,67.000000
2023-03-01T11:40:29.440Z,67.266667
2023-03-01T11:45:31.584Z,68.133333
2023-03-01T11:50:33.700Z,68.000000
2023-03-01T11:55:16.232Z,68.800000
2023-03-01T12:00:18.512Z,68.933333
2023-03-01T12:05:20.876Z,68.800000
2023-03-01T12:10:22.836Z,69.000000
2023-03-01T12:15:25.658Z,68.200000
2023-03-01T12:20:26.775Z,68.000000
2023-03-01T12:25:28.855Z,68.333333
2023-03-01T12:30:30.795Z,68.933333
2023-03-01T12:35:32.878Z,68.000000
2023-03-01T12:40:35.229Z,68.866667
2023-03-01T12:45:16.706Z,69.000000
2023-03-01T12:50:18.702Z,68.400000
2023-03-01T12:55:20.697Z,68.000000
2023-03-01T13:00:23.273Z,68.000000
2023-03-01T13:05:25.319Z,68.466667
2023-03-01T13:10:27.145Z,69.266667
2023-03-01T13:15:29.429Z,69.533333
2023-03-01T13:20:32.207Z,69.266667
2023-03-01T13:25:42.502Z,70.000000
2023-03-01T13:30:16.743Z,69.200000
2023-03-01T13:35:19.334Z,69.000000
2023-03-01T13:40:21.602Z,69.066667
2023-03-01T13:45:23.816Z,68.428571
2023-03-01T13:50:25.833Z,68.933333
2023-03-01T13:55:28.128Z,66.666667
2023-03-01T14:00:30.347Z,64.400000
2023-03-01T14:05:32.472Z,63.400000
2023-03-01T14:10:34.095Z,64.200000
2023-03-01T14:15:16.086Z,66.000000
2023-03-01T14:20:18.023Z,64.733333
2023-03-01T14:25:19.940Z,62.333333
2023-03-01T14:30:22.669Z,62.400000
2023-03-01T14:35:24.100Z,62.785714
2023-03-01T14:40:26.393Z,62.000000
2023-03-01T14:45:28.288Z,62.533333
2023-03-01T14:50:30.343Z,62.600000
2023-03-01T14:55:32.475Z,62.400000
2023-03-01T15:00:34.398Z,63.200000
2023-03-01T15:05:16.190Z,64.066667
2023-03-01T15:10:18.188Z,63.600000
2023-03-01T15:15:20.223Z,67.866667
2023-03-01T15:20:22.317Z,70.928571
2023-03-01T15:25:24.254Z,72.400000
2023-03-01T15:30:26.471Z,73.200000
2023-03-01T15:35:28.305Z,73.600000
2023-03-01T15:40:30.485Z,73.000000
2023-03-01T15:45:32.504Z,73.066667
2023-03-01T15:50:34.348Z,77.800000
2023-03-01T15:55:16.189Z,82.600000
2023-03-01T16:00:18.133Z,84.733333
2023-03-01T16:05:20.214Z,86.000000
2023-03-01T16:10:22.180Z,86.785714
2023-03-01T16:15:24.839Z,87.000000
2023-03-01T16:20:29.210Z,87.866667
2023-03-01T16:25:29.076Z,88.000000
2023-03-01T16:30:31.235Z,88.000000
2023-03-01T16:35:33.108Z,88.000000
2023-03-01T16:40:35.261Z,88.000000
2023-03-01T16:45:25.401Z,88.000000
2023-03-01T16:50:19.170Z,88.000000
2023-03-01T16:55:21.492Z,88.000000
2023-03-01T17:00:23.332Z,88.071429
2023-03-01T17:05:25.168Z,88.000000
2023-03-01T17:10:27.120Z,88.000000
2023-03-01T17:15:28.919Z,88.000000
2023-03-01T17:20:31.240Z,88.000000
2023-03-01T17:25:33.324Z,87.866667
2023-03-01T17:30:35.195Z,87.000000
2023-03-01T17:35:16.870Z,86.733333
2023-03-01T17:40:18.781Z,86.000000
2023-03-01T17:45:20.732Z,86.266667
2023-03-01T17:50:22.650Z,86.428571
2023-03-01T17:55:24.482Z,87.000000
2023-03-01T18:00:26.986Z,87.000000
2023-03-01T18:05:29.151Z,86.733333
2023-03-01T18:10:31.088Z,86.733333
2023-03-01T18:15:32.964Z,86.800000
2023-03-01T18:20:34.706Z,87.800000
2023-03-01T18:25:16.841Z,86.533333
2023-03-01T18:30:18.860Z,86.200000
2023-03-01T18:35:20.883Z,86.333333
2023-03-01T18:40:23.817Z,87.857143
2023-03-01T18:45:24.728Z,88.333333
2023-03-01T18:50:26.611Z,87.466667
2023-03-01T18:55:28.707Z,87.000000
2023-03-01T19:00:31.195Z,86.200000
2023-03-01T19:05:33.591Z,86.266667
2023-03-01T19:10:35.712Z,85.733333
2023-03-01T19:15:17.253Z,84.466667
2023-03-01T19:20:19.231Z,82.733333
2023-03-01T19:25:21.297Z,82.000000
2023-03-01T19:30:23.098Z,82.714286
2023-03-01T19:35:25.043Z,84.066667
2023-03-01T19:40:27.952Z,85.533333
2023-03-01T19:45:33.558Z,85.066667
2023-03-01T19:50:30.738Z,84.733333
2023-03-01T19:55:32.735Z,83.933333
2023-03-01T20:00:34.786Z,81.533333
2023-03-01T20:05:16.348Z,80.533333
2023-03-01T20:10:18.406Z,82.000000
2023-03-01T20:15:20.499Z,82.133333
2023-03-01T20:20:22.295Z,81.142857
2023-03-01T20:25:24.708Z,81.000000
2023-03-01T20:30:26.659Z,81.466667
2023-03-01T20:35:28.948Z,80.733333
2023-03-01T20:40:31.116Z,82.066667
2023-03-01T20:45:33.319Z,82.266667
2023-03-01T20:50:35.366Z,81.733333
2023-03-01T20:55:17.126Z,82.666667
2023-03-01T21:00:19.366Z,83.133333
2023-03-01T21:05:21.515Z,82.466667
2023-03-01T21:10:23.493Z,83.071429
2023-03-01T21:15:28.345Z,84.066667
2023-03-01T21:20:27.458Z,84.000000
2023-03-01T21:25:29.371Z,84.533333
2023-03-01T21:30:31.388Z,85.466667
2023-03-01T21:35:33.659Z,86.000000
2023-03-01T21:40:35.588Z,85.600000
2023-03-01T21:45:17.476Z,85.600000
2023-03-01T21:50:19.570Z,85.800000
2023-03-01T21:55:21.615Z,86.133333
2023-03-01T22:00:23.555Z,85.571429
2023-03-01T22:05:25.497Z,85.266667
2023-03-01T22:10:27.500Z,84.600000
2023-03-01T22:15:29.277Z,85.000000
2023-03-01T22:20:31.486Z,85.600000
2023-03-01T22:25:33.521Z,85.200000
2023-03-01T22:30:35.501Z,85.000000
2023-03-01T22:35:17.204Z,85.533333
2023-03-01T22:40:19.354Z,85.466667
2023-03-01T22:45:21.219Z,85.533333
2023-03-01T22:50:23.381Z,86.000000
2023-03-01T22:55:25.227Z,85.533333
2023-03-01T23:00:27.325Z,85.466667
2023-03-01T23:05:29.216Z,85.066667
2023-03-01T23:10:31.263Z,84.333333
2023-03-01T23:15:33.811Z,83.933333
2023-03-01T23:20:35.486Z,81.666667
2023-03-01T23:25:17.434Z,80.266667
2023-03-01T23:30:19.286Z,80.333333
2023-03-01T23:35:21.443Z,80.333333
2023-03-01T23:40:22.949Z,80.142857
2023-03-01T23:45:24.793Z,81.066667
2023-03-01T23:50:27.136Z,82.200000
2023-03-01T23:55:28.869Z,81.866667
